createdAt,value
2023-09-20T00:01:16.179Z,2.50
2023-09-20T00:03:44.870Z,1.85
2023-09-20T00:06:12.641Z,2.00
2023-09-20T00:08:40.239Z,2.20
2023-09-20T00:11:09.088Z,2.30
2023-09-20T00:13:36.402Z,2.63
2023-09-20T00:16:03.542Z,2.03
2023-09-20T00:18:31.790Z,2.40
2023-09-20T00:21:02.715Z,2.00
2023-09-20T00:23:29.974Z,2.20
2023-09-20T00:25:57.188Z,2.30
2023-09-20T00:28:24.452Z,2.13
2023-09-20T00:30:53.522Z,1.80
2023-09-20T00:33:20.546Z,2.13
2023-09-20T00:35:47.850Z,2.10
2023-09-20T00:38:16.209Z,2.20
2023-09-20T00:40:44.789Z,2.35
2023-09-20T00:43:12.934Z,2.22
2023-09-20T00:45:41.925Z,1.90
2023-09-20T00:48:10.759Z,2.03
2023-09-20T00:50:38.979Z,1.73
2023-09-20T00:53:08.235Z,2.40
2023-09-20T00:55:36.634Z,2.13
2023-09-20T00:58:06.403Z,2.10
2023-09-20T01:00:34.646Z,2.17
2023-09-20T01:03:02.798Z,1.95
2023-09-20T01:05:35.660Z,2.38
2023-09-20T01:08:03.447Z,2.70
2023-09-20T01:10:32.989Z,2.10
2023-09-20T01:13:20.396Z,2.30
2023-09-20T01:15:47.733Z,2.60
2023-09-20T01:18:15.011Z,2.22
2023-09-20T01:20:42.330Z,2.28
2023-09-20T01:23:10.041Z,2.67
2023-09-20T01:25:40.304Z,2.58
2023-09-20T01:28:09.503Z,2.08
2023-09-20T01:30:38.796Z,1.98
2023-09-20T01:33:11.076Z,2.53
2023-09-20T01:35:38.575Z,2.28
2023-09-20T01:38:07.711Z,2.20
2023-09-20T01:41:00.190Z,1.80
2023-09-20T01:43:37.595Z,2.22
2023-09-20T01:46:06.275Z,2.50
2023-09-20T01:48:33.549Z,2.35
2023-09-20T01:51:00.591Z,1.85
2023-09-20T01:53:28.065Z,2.53
2023-09-20T01:55:55.541Z,2.05
2023-09-20T01:58:24.664Z,2.03
2023-09-20T02:00:52.697Z,2.42
2023-09-20T02:03:20.947Z,2.28
2023-09-20T02:05:50.276Z,2.17
2023-09-20T02:08:18.469Z,2.20
2023-09-20T02:10:46.481Z,2.13
2023-09-20T02:13:17.234Z,2.05
2023-09-20T02:15:46.025Z,2.10
2023-09-20T02:18:13.636Z,2.75
2023-09-20T02:20:41.326Z,2.63
2023-09-20T02:23:14.612Z,1.90
2023-09-20T02:25:43.595Z,1.80
2023-09-20T02:28:12.658Z,1.90
2023-09-20T02:30:40.458Z,2.50
2023-09-20T02:33:08.951Z,2.25
2023-09-20T02:35:38.596Z,1.83
2023-09-20T02:38:07.853Z,1.88
2023-09-20T02:40:37.205Z,1.90
2023-09-20T02:43:06.255Z,1.80
2023-09-20T02:45:37.633Z,1.95
2023-09-20T02:48:08.336Z,2.08
2023-09-20T02:50:36.749Z,1.70
2023-09-20T02:53:06.634Z,2.17
2023-09-20T02:55:33.908Z,1.85
2023-09-20T02:58:01.284Z,1.52
2023-09-20T03:00:33.315Z,2.00
2023-09-20T03:03:06.373Z,1.35
2023-09-20T03:05:34.622Z,2.05
2023-09-20T03:08:06.539Z,2.00
2023-09-20T03:10:35.280Z,1.73
2023-09-20T03:13:05.385Z,2.08
2023-09-20T03:15:33.345Z,1.90
2023-09-20T03:18:07.277Z,2.00
2023-09-20T03:20:34.989Z,1.52
2023-09-20T03:23:07.269Z,1.92
2023-09-20T03:25:40.488Z,1.67
2023-09-20T03:28:17.034Z,2.22
2023-09-20T03:30:44.510Z,1.92
2023-09-20T03:33:12.528Z,1.55
2023-09-20T03:35:40.630Z,1.77
2023-09-20T03:38:07.582Z,1.98
2023-09-20T03:40:34.589Z,2.05
2023-09-20T03:43:10.063Z,1.77
2023-09-20T03:45:43.552Z,1.58
2023-09-20T03:48:10.608Z,1.65
2023-09-20T03:50:40.282Z,2.20
2023-09-20T03:53:07.790Z,1.67
2023-09-20T03:55:35.076Z,2.00
2023-09-20T03:58:04.764Z,1.85
2023-09-20T04:00:34.180Z,1.98
2023-09-20T04:03:02.934Z,1.58
2023-09-20T04:05:39.665Z,1.98
2023-09-20T04:08:11.417Z,2.10
2023-09-20T04:10:38.789Z,1.77
2023-09-20T04:13:06.284Z,1.67
2023-09-20T04:15:34.789Z,1.83
2023-09-20T04:18:09.790Z,2.08
2023-09-20T04:20:39.921Z,2.13
2023-09-20T04:23:08.030Z,1.60
2023-09-20T04:25:35.776Z,2.08
2023-09-20T04:28:02.851Z,1.85
2023-09-20T04:30:32.176Z,1.88
2023-09-20T04:32:59.930Z,2.17
2023-09-20T04:35:35.652Z,1.85
2023-09-20T04:38:06.025Z,1.95
2023-09-20T04:40:33.685Z,1.98
2023-09-20T04:43:00.539Z,2.03
2023-09-20T04:45:27.276Z,1.95
2023-09-20T04:47:54.665Z,2.05
2023-09-20T04:50:22.083Z,1.83
2023-09-20T04:52:51.993Z,2.35
2023-09-20T04:55:19.786Z,2.45
2023-09-20T04:57:49.100Z,2.22
2023-09-20T05:00:21.309Z,1.65
2023-09-20T05:02:48.642Z,2.38
2023-09-20T05:05:17.713Z,1.83
2023-09-20T05:07:45.824Z,1.92
2023-09-20T05:10:12.613Z,2.60
2023-09-20T05:12:39.504Z,2.15
2023-09-20T05:15:06.579Z,2.30
2023-09-20T05:17:35.287Z,2.38
2023-09-20T05:20:03.672Z,2.35
2023-09-20T05:22:31.480Z,2.33
2023-09-20T05:24:59.130Z,2.20
2023-09-20T05:27:26.099Z,2.65
2023-09-20T05:29:54.282Z,2.28
2023-09-20T05:32:22.415Z,2.08
2023-09-20T05:34:49.329Z,2.10
2023-09-20T05:37:16.009Z,1.88
2023-09-20T05:39:44.707Z,2.65
2023-09-20T05:42:13.464Z,2.28
2023-09-20T05:44:40.138Z,2.15
2023-09-20T05:47:09.306Z,2.20
2023-09-20T05:49:36.462Z,2.10
2023-09-20T05:52:07.924Z,2.08
2023-09-20T05:54:35.032Z,1.77
2023-09-20T05:57:01.929Z,2.17
2023-09-20T05:59:29.414Z,2.53
2023-09-20T06:01:56.812Z,2.45
2023-09-20T06:04:23.972Z,2.00
2023-09-20T06:06:51.653Z,2.25
2023-09-20T06:09:20.323Z,2.40
2023-09-20T06:11:47.325Z,1.67
2023-09-20T06:14:17.783Z,1.60
2023-09-20T06:16:44.570Z,2.10
2023-09-20T06:19:14.024Z,2.15
2023-09-20T06:21:42.257Z,1.83
2023-09-20T06:24:12.642Z,2.03
2023-09-20T06:26:45.155Z,1.80
2023-09-20T06:29:12.394Z,2.03
2023-09-20T06:31:39.246Z,2.15
2023-09-20T06:34:07.006Z,2.08
2023-09-20T06:36:34.313Z,1.75
2023-09-20T06:39:01.432Z,1.80
2023-09-20T06:41:28.163Z,2.10
2023-09-20T06:43:57.865Z,2.03
2023-09-20T06:46:25.737Z,1.60
2023-09-20T06:48:53.592Z,1.90
2023-09-20T06:51:20.288Z,1.63
2023-09-20T06:53:47.726Z,2.00
2023-09-20T06:56:14.804Z,1.60
2023-09-20T06:58:41.983Z,1.73
2023-09-20T07:01:11.170Z,1.98
2023-09-20T07:03:38.078Z,1.65
2023-09-20T07:06:06.647Z,1.63
2023-09-20T07:08:33.659Z,2.30
2023-09-20T07:11:00.320Z,2.13
2023-09-20T07:13:27.659Z,2.38
2023-09-20T07:15:57.505Z,2.30
2023-09-20T07:18:24.724Z,2.40
2023-09-20T07:20:56.099Z,2.20
2023-09-20T07:23:23.386Z,3.00
2023-09-20T07:25:51.409Z,2.83
2023-09-20T07:28:18.188Z,2.85
2023-09-20T07:30:48.867Z,2.28
2023-09-20T07:33:21.478Z,2.47
2023-09-20T07:35:49.676Z,1.88
2023-09-20T07:38:40.070Z,1.60
2023-09-20T07:41:14.331Z,2.10
2023-09-20T07:43:43.820Z,2.22
2023-09-20T07:46:11.160Z,1.52
2023-09-20T07:48:49.164Z,1.98
2023-09-20T07:51:21.341Z,2.00
2023-09-20T07:53:50.594Z,1.85
2023-09-20T07:56:18.333Z,2.05
2023-09-20T07:58:45.705Z,2.00
2023-09-20T08:01:23.672Z,2.00
2023-09-20T08:03:57.167Z,1.80
2023-09-20T08:06:26.080Z,1.52
2023-09-20T08:08:53.278Z,1.55
2023-09-20T08:11:22.025Z,1.88
2023-09-20T08:13:56.025Z,1.67
2023-09-20T08:16:24.451Z,2.00
2023-09-20T08:19:14.835Z,1.60
2023-09-20T08:21:43.484Z,1.75
2023-09-20T08:24:29.089Z,1.70
2023-09-20T08:27:14.769Z,1.58
2023-09-20T08:30:00.720Z,2.50
2023-09-20T08:32:46.836Z,2.03
2023-09-20T08:35:32.292Z,2.15
2023-09-20T08:38:17.906Z,2.42
2023-09-20T08:41:03.552Z,2.85
2023-09-20T08:43:49.081Z,2.90
2023-09-20T08:46:35.740Z,2.10
2023-09-20T08:49:22.624Z,2.60
2023-09-20T08:52:27.167Z,2.25
2023-09-20T08:55:13.697Z,2.58
2023-09-20T08:57:59.596Z,2.80
2023-09-20T09:00:28.859Z,3.65
2023-09-20T09:02:57.785Z,3.03
2023-09-20T09:05:30.614Z,2.90
2023-09-20T09:07:58.517Z,3.05
2023-09-20T09:10:25.564Z,2.70
2023-09-20T09:12:52.236Z,3.17
2023-09-20T09:15:19.255Z,3.00
2023-09-20T09:17:47.908Z,2.53
2023-09-20T09:20:17.001Z,2.80
2023-09-20T09:22:45.215Z,2.42
2023-09-20T09:25:12.420Z,2.40
2023-09-20T09:27:40.697Z,2.28
2023-09-20T09:30:17.804Z,1.98
2023-09-20T09:32:46.670Z,1.90
2023-09-20T09:35:35.723Z,2.22
2023-09-20T09:38:07.615Z,2.15
2023-09-20T09:40:50.794Z,2.35
2023-09-20T09:43:17.745Z,2.40
2023-09-20T09:45:45.762Z,2.20
2023-09-20T09:48:14.878Z,2.50
2023-09-20T09:50:42.332Z,1.98
2023-09-20T09:53:12.123Z,2.30
2023-09-20T09:55:40.436Z,2.05
2023-09-20T09:58:10.182Z,2.00
2023-09-20T10:00:41.095Z,1.98
2023-09-20T10:03:27.513Z,1.73
2023-09-20T10:08:22.409Z,2.00
2023-09-20T10:10:49.221Z,1.77
2023-09-20T10:13:16.086Z,1.98
2023-09-20T10:15:44.575Z,1.80
2023-09-20T10:18:12.607Z,1.67
2023-09-20T10:20:55.762Z,2.10
2023-09-20T10:23:24.117Z,1.70
2023-09-20T10:25:50.952Z,1.70
2023-09-20T10:28:18.117Z,1.60
2023-09-20T10:30:57.591Z,1.67
2023-09-20T10:33:42.547Z,1.92
2023-09-20T10:36:11.775Z,1.20
2023-09-20T10:38:40.858Z,1.38
2023-09-20T10:41:12.079Z,1.50
2023-09-20T10:43:38.755Z,1.90
2023-09-20T10:46:10.068Z,1.10
2023-09-20T10:48:40.744Z,1.92
2023-09-20T10:51:08.478Z,1.65
2023-09-20T10:53:52.255Z,1.55
2023-09-20T10:56:54.967Z,1.70
2023-09-20T10:59:26.312Z,1.70
2023-09-20T11:01:57.788Z,1.35
2023-09-20T11:04:30.368Z,1.50
2023-09-20T11:07:01.133Z,1.65
2023-09-20T11:09:39.962Z,1.50
2023-09-20T11:12:08.790Z,1.52
2023-09-20T11:14:40.201Z,1.30
2023-09-20T11:17:09.049Z,1.60
2023-09-20T11:19:36.422Z,1.77
2023-09-20T11:22:04.392Z,1.75
2023-09-20T11:24:31.201Z,1.85
2023-09-20T11:26:58.323Z,2.13
2023-09-20T11:29:28.179Z,2.17
2023-09-20T11:31:56.198Z,2.28
2023-09-20T11:34:22.987Z,2.00
2023-09-20T11:36:54.865Z,2.03
2023-09-20T11:39:30.654Z,1.75
2023-09-20T11:42:05.726Z,2.00
2023-09-20T11:44:36.876Z,2.17
2023-09-20T11:47:04.657Z,1.60
2023-09-20T11:49:33.625Z,2.30
2023-09-20T11:52:02.059Z,1.90
2023-09-20T11:54:39.357Z,1.75
2023-09-20T11:57:06.234Z,1.70
2023-09-20T11:59:40.993Z,2.17
2023-09-20T12:02:09.825Z,1.92
2023-09-20T12:04:37.537Z,2.03
2023-09-20T12:07:04.553Z,2.05
2023-09-20T12:09:32.175Z,2.22
2023-09-20T12:11:59.486Z,2.00
2023-09-20T12:14:27.129Z,2.25
2023-09-20T12:16:54.201Z,2.20
2023-09-20T12:19:22.609Z,2.35
2023-09-20T12:21:50.661Z,1.60
2023-09-20T12:24:18.399Z,2.00
2023-09-20T12:26:46.864Z,1.98
2023-09-20T12:29:13.884Z,2.13
2023-09-20T12:31:40.786Z,1.65
2023-09-20T12:34:07.976Z,2.10
2023-09-20T12:36:35.665Z,2.08
2023-09-20T12:39:02.732Z,1.70
2023-09-20T12:41:29.696Z,1.90
2023-09-20T12:43:56.402Z,2.63
2023-09-20T12:46:25.413Z,2.03
2023-09-20T12:48:52.279Z,1.92
2023-09-20T12:51:19.037Z,1.48
2023-09-20T12:53:45.958Z,2.38
2023-09-20T12:56:14.615Z,1.70
2023-09-20T12:58:42.593Z,1.70
2023-09-20T13:01:11.443Z,1.73
2023-09-20T13:03:42.199Z,1.48
2023-09-20T13:06:15.590Z,1.50
2023-09-20T13:08:43.784Z,1.60
2023-09-20T13:11:15.126Z,1.45
2023-09-20T13:13:44.927Z,1.45
2023-09-20T13:16:11.776Z,1.42
2023-09-20T13:18:39.569Z,1.58
2023-09-20T13:21:06.608Z,2.17
2023-09-20T13:23:33.598Z,1.45
2023-09-20T13:26:01.569Z,1.35
2023-09-20T13:28:28.769Z,1.52
2023-09-20T13:30:55.607Z,1.40
2023-09-20T13:37:10.355Z,1.13
2023-09-20T13:39:43.526Z,1.20
2023-09-20T13:42:11.166Z,1.45
2023-09-20T13:44:38.011Z,1.20
2023-09-20T13:47:16.877Z,1.20
2023-09-20T13:49:50.132Z,1.25
2023-09-20T13:52:16.779Z,1.33
2023-09-20T13:54:46.818Z,1.05
2023-09-20T13:57:13.796Z,1.25
2023-09-20T13:59:40.453Z,1.00
2023-09-20T14:02:07.082Z,1.52
2023-09-20T14:04:33.754Z,1.15
2023-09-20T14:07:00.461Z,1.33
2023-09-20T14:09:27.240Z,0.90
2023-09-20T14:11:53.990Z,1.25
2023-09-20T14:14:27.998Z,1.23
2023-09-20T14:16:55.127Z,0.88
2023-09-20T14:19:21.737Z,1.08
2023-09-20T14:21:49.463Z,1.10
2023-09-20T14:24:16.932Z,1.10
2023-09-20T14:26:43.663Z,1.00
2023-09-20T14:29:11.418Z,0.95
2023-09-20T14:31:41.038Z,1.02
2023-09-20T14:34:07.862Z,1.00
2023-09-20T14:36:34.696Z,1.10
2023-09-20T14:39:01.362Z,0.90
2023-09-20T14:41:28.006Z,0.98
2023-09-20T14:43:54.605Z,0.82
2023-09-20T14:46:22.137Z,1.00
2023-09-20T14:48:49.049Z,0.90
2023-09-20T14:51:18.975Z,1.00
2023-09-20T14:53:46.105Z,0.65
2023-09-20T14:56:14.391Z,0.70
2023-09-20T14:58:41.048Z,0.70
2023-09-20T15:01:12.322Z,1.00
2023-09-20T15:03:38.879Z,0.75
2023-09-20T15:06:07.282Z,0.93
2023-09-20T15:08:34.511Z,0.80
2023-09-20T15:11:02.129Z,1.00
2023-09-20T15:13:29.488Z,1.10
2023-09-20T15:15:58.721Z,0.90
2023-09-20T15:18:26.118Z,1.00
2023-09-20T15:20:53.096Z,0.80
2023-09-20T15:23:20.033Z,1.02
2023-09-20T15:25:48.636Z,0.88
2023-09-20T15:28:15.281Z,1.00
2023-09-20T15:30:42.001Z,0.90
2023-09-20T15:33:10.287Z,1.02
2023-09-20T15:35:37.097Z,0.80
2023-09-20T15:38:03.757Z,0.73
2023-09-20T15:40:30.315Z,1.10
2023-09-20T15:42:58.485Z,0.73
2023-09-20T15:45:27.119Z,0.90
2023-09-20T15:47:53.838Z,1.30
2023-09-20T15:50:20.520Z,1.02
2023-09-20T15:52:47.120Z,1.08
2023-09-20T15:55:16.900Z,0.93
2023-09-20T15:57:44.556Z,0.90
2023-09-20T16:00:15.737Z,0.93
2023-09-20T16:02:43.688Z,0.98
2023-09-20T16:05:10.893Z,0.70
2023-09-20T16:07:39.517Z,0.80
2023-09-20T16:10:08.389Z,0.80
2023-09-20T16:12:34.899Z,0.77
2023-09-20T16:15:01.592Z,0.88
2023-09-20T16:17:29.029Z,1.17
2023-09-20T16:19:55.808Z,0.90
2023-09-20T16:22:24.404Z,1.23
2023-09-20T16:24:51.451Z,1.08
2023-09-20T16:27:18.028Z,1.05
2023-09-20T16:29:44.672Z,0.90
2023-09-20T16:32:11.336Z,0.70
2023-09-20T16:34:37.915Z,1.20
2023-09-20T16:37:04.518Z,1.00
2023-09-20T16:39:31.059Z,0.95
2023-09-20T16:42:01.181Z,1.17
2023-09-20T16:44:27.875Z,1.05
2023-09-20T16:46:54.442Z,1.20
2023-09-20T16:49:21.061Z,1.10
2023-09-20T16:51:47.715Z,1.30
2023-09-20T16:54:14.536Z,0.80
2023-09-20T16:56:41.141Z,1.38
2023-09-20T16:59:09.120Z,1.10
2023-09-20T17:01:36.955Z,1.33
2023-09-20T17:04:04.016Z,1.30
2023-09-20T17:06:30.723Z,1.20
2023-09-20T17:08:57.359Z,1.27
2023-09-20T17:11:24.962Z,1.20
2023-09-20T17:13:54.513Z,1.25
2023-09-20T17:16:21.260Z,1.25
2023-09-20T17:18:48.095Z,1.65
2023-09-20T17:21:15.474Z,1.20
2023-09-20T17:23:42.294Z,1.10
2023-09-20T17:26:10.943Z,1.10
2023-09-20T17:28:37.704Z,1.42
2023-09-20T17:31:06.263Z,1.15
2023-09-20T17:33:33.080Z,1.20
2023-09-20T17:36:00.933Z,1.40
2023-09-20T17:38:29.396Z,1.38
2023-09-20T17:40:56.162Z,1.08
2023-09-20T17:43:22.992Z,1.40
2023-09-20T17:45:49.708Z,1.25
2023-09-20T17:48:16.644Z,1.50
2023-09-20T17:50:46.295Z,1.08
2023-09-20T17:53:13.676Z,1.38
2023-09-20T17:55:42.989Z,1.35
2023-09-20T17:58:10.533Z,1.67
2023-09-20T18:00:37.142Z,1.50
2023-09-20T18:03:03.990Z,1.27
2023-09-20T18:05:33.467Z,1.42
2023-09-20T18:08:02.296Z,1.10
2023-09-20T18:10:29.077Z,1.08
2023-09-20T18:12:55.688Z,1.20
2023-09-20T18:15:22.267Z,1.20
2023-09-20T18:17:49.057Z,1.30
2023-09-20T18:20:15.705Z,1.60
2023-09-20T18:22:42.316Z,2.13
2023-09-20T18:25:11.061Z,1.27
2023-09-20T18:27:38.525Z,1.10
2023-09-20T18:30:07.967Z,1.30
2023-09-20T18:32:38.585Z,1.40
2023-09-20T18:35:27.065Z,1.40
2023-09-20T18:37:57.436Z,1.40
2023-09-20T18:40:24.509Z,1.20
2023-09-20T18:42:51.195Z,1.10
2023-09-20T18:45:18.020Z,1.38
2023-09-20T18:47:45.133Z,1.42
2023-09-20T18:50:14.749Z,1.40
2023-09-20T18:52:42.127Z,1.38
2023-09-20T18:55:08.775Z,1.70
2023-09-20T18:57:35.294Z,1.40
2023-09-20T19:00:01.884Z,1.27
2023-09-20T19:02:29.717Z,1.83
2023-09-20T19:04:56.986Z,1.50
2023-09-20T19:07:24.714Z,1.48
2023-09-20T19:09:55.729Z,1.73
2023-09-20T19:12:25.584Z,1.85
2023-09-20T19:14:54.048Z,1.60
2023-09-20T19:17:20.653Z,1.50
2023-09-20T19:19:47.257Z,1.60
2023-09-20T19:22:14.867Z,1.45
2023-09-20T19:24:43.812Z,1.70
2023-09-20T19:27:11.506Z,1.85
2023-09-20T19:29:38.737Z,1.30
2023-09-20T19:32:05.440Z,2.03
2023-09-20T19:34:34.238Z,1.70
2023-09-20T19:37:01.692Z,1.80
2023-09-20T19:39:29.857Z,1.70
2023-09-20T19:41:57.842Z,1.63
2023-09-20T19:44:24.866Z,1.58
2023-09-20T19:46:51.621Z,1.88
2023-09-20T19:49:18.834Z,1.65
2023-09-20T19:51:47.446Z,1.40
2023-09-20T19:54:15.322Z,1.70
2023-09-20T19:56:43.681Z,1.70
2023-09-20T19:59:12.696Z,1.60
2023-09-20T20:01:40.675Z,1.55
2023-09-20T20:04:09.583Z,1.77
2023-09-20T20:06:37.285Z,1.88
2023-09-20T20:09:08.098Z,1.70
2023-09-20T20:11:34.881Z,2.03
2023-09-20T20:14:02.004Z,1.85
2023-09-20T20:16:30.219Z,1.80
2023-09-20T20:18:57.907Z,1.77
2023-09-20T20:21:26.058Z,1.60
2023-09-20T20:23:55.221Z,1.67
2023-09-20T20:26:22.865Z,1.30
2023-09-20T20:28:51.257Z,1.52
2023-09-20T20:31:21.200Z,1.40
2023-09-20T20:33:48.061Z,1.70
2023-09-20T20:36:15.580Z,1.58
2023-09-20T20:38:42.640Z,1.52
2023-09-20T20:41:10.011Z,1.33
2023-09-20T20:43:38.051Z,1.63
2023-09-20T20:46:13.411Z,1.73
2023-09-20T20:48:41.082Z,1.90
2023-09-20T20:51:12.286Z,1.50
2023-09-20T20:53:39.060Z,1.90
2023-09-20T20:56:05.858Z,1.63
2023-09-20T20:58:33.828Z,1.40
2023-09-20T21:01:01.568Z,1.40
2023-09-20T21:03:28.490Z,1.90
2023-09-20T21:05:55.481Z,1.60
2023-09-20T21:08:22.651Z,1.60
2023-09-20T21:10:49.459Z,1.90
2023-09-20T21:13:16.687Z,1.77
2023-09-20T21:15:47.139Z,1.88
2023-09-20T21:18:17.270Z,1.55
2023-09-20T21:20:50.893Z,1.80
2023-09-20T21:23:18.702Z,2.28
2023-09-20T21:25:46.921Z,1.50
2023-09-20T21:28:13.595Z,1.85
2023-09-20T21:30:40.266Z,1.95
2023-09-20T21:33:10.490Z,1.67
2023-09-20T21:35:37.676Z,1.80
2023-09-20T21:38:08.144Z,1.38
2023-09-20T21:40:35.380Z,1.52
2023-09-20T21:43:02.833Z,1.90
2023-09-20T21:45:31.596Z,1.40
2023-09-20T21:47:58.836Z,1.83
2023-09-20T21:50:26.686Z,1.50
2023-09-20T21:52:54.117Z,1.65
2023-09-20T21:55:21.050Z,1.80
2023-09-20T21:57:47.736Z,1.42
2023-09-20T22:00:20.826Z,1.45
2023-09-20T22:02:48.655Z,1.48
2023-09-20T22:05:18.623Z,1.70
2023-09-20T22:07:50.554Z,1.40
2023-09-20T22:10:26.454Z,1.50
2023-09-20T22:15:19.900Z,1.58
2023-09-20T22:17:50.578Z,1.52
2023-09-20T22:20:19.257Z,1.27
2023-09-20T22:22:49.493Z,1.58
2023-09-20T22:25:16.714Z,1.55
2023-09-20T22:27:43.423Z,1.33
2023-09-20T22:30:11.773Z,1.40
2023-09-20T22:32:41.529Z,1.42
2023-09-20T22:35:09.548Z,1.58
2023-09-20T22:37:36.679Z,1.30
2023-09-20T22:40:07.713Z,1.73
2023-09-20T22:42:34.466Z,1.15
2023-09-20T22:45:01.465Z,1.30
2023-09-20T22:47:28.730Z,1.55
2023-09-20T22:49:57.717Z,1.33
2023-09-20T22:52:24.257Z,1.40
2023-09-20T22:54:50.855Z,1.52
2023-09-20T22:57:23.751Z,1.48
2023-09-20T22:59:51.367Z,1.35
2023-09-20T23:02:18.494Z,1.45
2023-09-20T23:04:48.473Z,1.38
2023-09-20T23:07:16.546Z,1.48
2023-09-20T23:09:43.125Z,1.35
2023-09-20T23:12:12.475Z,1.20
2023-09-20T23:14:39.351Z,1.67
2023-09-20T23:17:16.586Z,1.70
2023-09-20T23:19:49.430Z,1.48
2023-09-20T23:22:16.848Z,1.38
2023-09-20T23:24:45.454Z,1.45
2023-09-20T23:27:14.372Z,1.38
2023-09-20T23:29:41.068Z,1.92
2023-09-20T23:32:09.532Z,1.35
2023-09-20T23:34:36.267Z,1.55
2023-09-20T23:37:11.795Z,1.08
2023-09-20T23:39:38.364Z,1.33
2023-09-20T23:42:06.547Z,1.30
2023-09-20T23:44:37.251Z,1.15
2023-09-20T23:47:04.022Z,1.23
2023-09-20T23:49:33.523Z,1.00
2023-09-20T23:52:02.239Z,1.23
2023-09-20T23:54:29.719Z,1.27
2023-09-20T23:56:56.299Z,1.15
2023-09-20T23:59:22.858Z,1.23
